sensor_id;sensor_type;location;lat;lon;timestamp;pressure;altitude;pressure_sealevel;temperature;humidity
20115;BME280;10218;42.874;25.320;2023-07-29T00:02:03;96975.66;;;16.96;100.00
20115;BME280;10218;42.874;25.320;2023-07-29T00:04:31;96979.06;;;16.79;100.00
20115;BME280;10218;42.874;25.320;2023-07-29T00:06:58;96974.56;;;16.66;100.00
20115;BME280;10218;42.874;25.320;2023-07-29T00:09:25;96971.69;;;16.54;100.00
20115;BME280;10218;42.874;25.320;2023-07-29T00:11:53;96968.37;;;16.65;100.00
20115;BME280;10218;42.874;25.320;2023-07-29T00:14:20;96965.66;;;16.65;100.00
20115;BME280;10218;42.874;25.320;2023-07-29T00:16:47;96967.06;;;16.75;100.00
20115;BME280;10218;42.874;25.320;2023-07-29T00:19:14;96964.22;;;16.63;100.00
20115;BME280;10218;42.874;25.320;2023-07-29T00:21:41;96961.72;;;16.61;100.00
20115;BME280;10218;42.874;25.320;2023-07-29T00:24:08;96955.50;;;16.54;100.00
20115;BME280;10218;42.874;25.320;2023-07-29T00:26:35;96948.47;;;16.53;100.00
20115;BME280;10218;42.874;25.320;2023-07-29T00:29:03;96945.53;;;16.61;100.00
20115;BME280;10218;42.874;25.320;2023-07-29T00:31:30;96949.69;;;16.57;100.00
20115;BME280;10218;42.874;25.320;2023-07-29T00:33:57;96947.38;;;16.67;100.00
20115;BME280;10218;42.874;25.320;2023-07-29T00:36:25;96938.91;;;16.57;100.00
20115;BME280;10218;42.874;25.320;2023-07-29T00:38:52;96929.13;;;16.56;100.00
20115;BME280;10218;42.874;25.320;2023-07-29T00:41:22;96937.03;;;16.64;100.00
20115;BME280;10218;42.874;25.320;2023-07-29T00:43:50;96938.25;;;16.68;100.00
20115;BME280;10218;42.874;25.320;2023-07-29T00:46:17;96933.91;;;16.61;100.00
20115;BME280;10218;42.874;25.320;2023-07-29T00:48:45;96928.75;;;16.59;100.00
20115;BME280;10218;42.874;25.320;2023-07-29T00:51:15;96929.59;;;16.60;100.00
20115;BME280;10218;42.874;25.320;2023-07-29T00:53:42;96923.75;;;16.56;100.00
20115;BME280;10218;42.874;25.320;2023-07-29T00:56:09;96935.19;;;16.52;100.00
20115;BME280;10218;42.874;25.320;2023-07-29T00:58:37;96934.16;;;16.46;100.00
20115;BME280;10218;42.874;25.320;2023-07-29T01:01:05;96927.72;;;16.60;100.00
20115;BME280;10218;42.874;25.320;2023-07-29T01:03:32;96922.53;;;16.52;100.00
20115;BME280;10218;42.874;25.320;2023-07-29T01:06:12;96938.91;;;16.57;100.00
20115;BME280;10218;42.874;25.320;2023-07-29T01:08:58;96932.88;;;16.62;100.00
20115;BME280;10218;42.874;25.320;2023-07-29T01:11:35;96927.91;;;16.65;100.00
20115;BME280;10218;42.874;25.320;2023-07-29T01:14:25;96929.59;;;16.60;100.00
20115;BME280;10218;42.874;25.320;2023-07-29T01:17:00;96922.72;;;16.57;100.00
20115;BME280;10218;42.874;25.320;2023-07-29T01:22:21;96917.44;;;16.31;100.00
20115;BME280;10218;42.874;25.320;2023-07-29T01:24:48;96924.75;;;16.24;100.00
20115;BME280;10218;42.874;25.320;2023-07-29T01:27:15;96934.81;;;16.42;100.00
20115;BME280;10218;42.874;25.320;2023-07-29T01:29:42;96928.59;;;16.41;100.00
20115;BME280;10218;42.874;25.320;2023-07-29T01:35:11;96935.91;;;16.34;100.00
20115;BME280;10218;42.874;25.320;2023-07-29T01:37:46;96945.84;;;16.40;100.00
20115;BME280;10218;42.874;25.320;2023-07-29T01:40:16;96951.63;;;16.44;100.00
20115;BME280;10218;42.874;25.320;2023-07-29T01:42:45;96952.59;;;16.56;100.00
20115;BME280;10218;42.874;25.320;2023-07-29T01:45:12;96961.31;;;16.51;100.00
20115;BME280;10218;42.874;25.320;2023-07-29T01:47:39;96953.94;;;16.40;100.00
20115;BME280;10218;42.874;25.320;2023-07-29T01:50:08;96958.94;;;16.30;100.00
20115;BME280;10218;42.874;25.320;2023-07-29T01:52:36;96958.03;;;16.49;100.00
20115;BME280;10218;42.874;25.320;2023-07-29T01:55:03;96952.59;;;16.62;100.00
20115;BME280;10218;42.874;25.320;2023-07-29T01:57:30;96951.75;;;16.68;100.00
20115;BME280;10218;42.874;25.320;2023-07-29T01:59:57;96950.13;;;16.54;100.00
20115;BME280;10218;42.874;25.320;2023-07-29T02:02:24;96953.47;;;16.50;100.00
20115;BME280;10218;42.874;25.320;2023-07-29T02:04:52;96943.50;;;16.50;100.00
20115;BME280;10218;42.874;25.320;2023-07-29T02:07:19;96952.41;;;16.51;100.00
20115;BME280;10218;42.874;25.320;2023-07-29T02:09:46;96943.13;;;16.40;100.00
20115;BME280;10218;42.874;25.320;2023-07-29T02:12:13;96960.56;;;16.38;100.00
20115;BME280;10218;42.874;25.320;2023-07-29T02:14:40;96956.38;;;16.42;100.00
20115;BME280;10218;42.874;25.320;2023-07-29T02:17:07;96971.72;;;16.41;100.00
20115;BME280;10218;42.874;25.320;2023-07-29T02:19:35;96964.94;;;16.32;100.00
20115;BME280;10218;42.874;25.320;2023-07-29T02:22:02;96976.34;;;16.34;100.00
20115;BME280;10218;42.874;25.320;2023-07-29T02:24:30;96978.66;;;16.17;100.00
20115;BME280;10218;42.874;25.320;2023-07-29T02:26:57;96979.88;;;16.21;100.00
20115;BME280;10218;42.874;25.320;2023-07-29T02:29:24;96982.19;;;16.18;100.00
20115;BME280;10218;42.874;25.320;2023-07-29T02:31:52;96983.47;;;16.02;100.00
20115;BME280;10218;42.874;25.320;2023-07-29T02:34:19;96987.19;;;16.08;100.00
20115;BME280;10218;42.874;25.320;2023-07-29T02:36:46;96983.88;;;16.06;100.00
20115;BME280;10218;42.874;25.320;2023-07-29T02:39:13;96984.94;;;15.92;100.00
20115;BME280;10218;42.874;25.320;2023-07-29T02:41:41;96981.22;;;15.99;100.00
20115;BME280;10218;42.874;25.320;2023-07-29T02:44:08;96979.34;;;15.80;100.00
20115;BME280;10218;42.874;25.320;2023-07-29T02:46:35;96980.56;;;15.91;100.00
20115;BME280;10218;42.874;25.320;2023-07-29T02:49:03;96979.78;;;15.77;100.00
20115;BME280;10218;42.874;25.320;2023-07-29T02:51:30;96991.00;;;15.54;100.00
20115;BME280;10218;42.874;25.320;2023-07-29T02:53:57;96980.63;;;15.58;100.00
20115;BME280;10218;42.874;25.320;2023-07-29T02:56:25;96981.03;;;15.68;100.00
20115;BME280;10218;42.874;25.320;2023-07-29T02:58:52;96974.41;;;15.57;100.00
20115;BME280;10218;42.874;25.320;2023-07-29T03:01:19;96987.25;;;15.55;100.00
20115;BME280;10218;42.874;25.320;2023-07-29T03:03:47;96984.75;;;15.60;100.00
20115;BME280;10218;42.874;25.320;2023-07-29T03:06:14;96975.25;;;15.64;100.00
20115;BME280;10218;42.874;25.320;2023-07-29T03:08:42;96978.53;;;15.86;100.00
20115;BME280;10218;42.874;25.320;2023-07-29T03:11:11;96978.34;;;15.74;100.00
20115;BME280;10218;42.874;25.320;2023-07-29T03:13:39;96986.19;;;15.76;100.00
20115;BME280;10218;42.874;25.320;2023-07-29T03:16:10;96986.66;;;15.53;100.00
20115;BME280;10218;42.874;25.320;2023-07-29T03:18:38;96991.41;;;15.64;100.00
20115;BME280;10218;42.874;25.320;2023-07-29T03:21:06;96982.50;;;15.64;100.00
20115;BME280;10218;42.874;25.320;2023-07-29T03:23:34;96990.13;;;15.60;100.00
20115;BME280;10218;42.874;25.320;2023-07-29T03:26:03;96990.78;;;15.62;100.00
20115;BME280;10218;42.874;25.320;2023-07-29T03:28:42;96997.00;;;15.63;100.00
20115;BME280;10218;42.874;25.320;2023-07-29T03:31:10;96989.69;;;15.50;100.00
20115;BME280;10218;42.874;25.320;2023-07-29T03:33:37;96983.47;;;15.50;100.00
20115;BME280;10218;42.874;25.320;2023-07-29T03:36:04;96988.03;;;15.49;100.00
20115;BME280;10218;42.874;25.320;2023-07-29T03:38:32;96989.09;;;15.61;100.00
20115;BME280;10218;42.874;25.320;2023-07-29T03:41:02;96989.13;;;15.74;100.00
20115;BME280;10218;42.874;25.320;2023-07-29T03:43:29;96985.16;;;15.70;100.00
20115;BME280;10218;42.874;25.320;2023-07-29T03:45:57;96992.63;;;15.68;100.00
20115;BME280;10218;42.874;25.320;2023-07-29T03:48:24;96990.56;;;15.83;100.00
20115;BME280;10218;42.874;25.320;2023-07-29T03:50:51;97003.81;;;15.78;100.00
20115;BME280;10218;42.874;25.320;2023-07-29T03:53:19;96992.38;;;15.96;100.00
20115;BME280;10218;42.874;25.320;2023-07-29T03:55:46;96997.97;;;16.08;100.00
20115;BME280;10218;42.874;25.320;2023-07-29T03:58:13;97005.22;;;16.01;100.00
20115;BME280;10218;42.874;25.320;2023-07-29T04:00:41;97007.13;;;15.94;100.00
20115;BME280;10218;42.874;25.320;2023-07-29T04:03:08;97002.94;;;16.11;100.00
20115;BME280;10218;42.874;25.320;2023-07-29T04:05:35;97008.97;;;15.93;100.00
20115;BME280;10218;42.874;25.320;2023-07-29T04:08:02;97014.78;;;16.10;100.00
20115;BME280;10218;42.874;25.320;2023-07-29T04:10:31;97012.69;;;16.05;100.00
20115;BME280;10218;42.874;25.320;2023-07-29T04:12:58;97020.56;;;16.20;100.00
20115;BME280;10218;42.874;25.320;2023-07-29T04:15:26;97014.28;;;16.26;100.00
20115;BME280;10218;42.874;25.320;2023-07-29T04:17:53;97015.56;;;16.30;100.00
20115;BME280;10218;42.874;25.320;2023-07-29T04:20:20;97007.22;;;16.45;100.00
20115;BME280;10218;42.874;25.320;2023-07-29T04:22:47;97005.72;;;16.55;100.00
20115;BME280;10218;42.874;25.320;2023-07-29T04:25:14;97009.00;;;16.57;100.00
20115;BME280;10218;42.874;25.320;2023-07-29T04:27:41;96995.25;;;16.79;100.00
20115;BME280;10218;42.874;25.320;2023-07-29T04:30:09;97003.81;;;17.07;100.00
20115;BME280;10218;42.874;25.320;2023-07-29T04:32:37;97002.75;;;17.15;100.00
20115;BME280;10218;42.874;25.320;2023-07-29T04:35:06;97003.47;;;16.97;100.00
20115;BME280;10218;42.874;25.320;2023-07-29T04:37:35;96997.37;;;17.08;100.00
20115;BME280;10218;42.874;25.320;2023-07-29T04:40:03;96994.19;;;17.18;100.00
20115;BME280;10218;42.874;25.320;2023-07-29T04:42:30;96997.84;;;17.36;100.00
20115;BME280;10218;42.874;25.320;2023-07-29T04:44:57;96995.69;;;17.45;100.00
20115;BME280;10218;42.874;25.320;2023-07-29T04:47:24;96997.63;;;17.63;100.00
20115;BME280;10218;42.874;25.320;2023-07-29T04:49:52;97001.34;;;17.68;100.00
20115;BME280;10218;42.874;25.320;2023-07-29T04:52:19;96997.56;;;17.44;100.00
20115;BME280;10218;42.874;25.320;2023-07-29T04:54:47;96985.28;;;17.73;100.00
20115;BME280;10218;42.874;25.320;2023-07-29T04:57:14;96996.22;;;18.03;100.00
20115;BME280;10218;42.874;25.320;2023-07-29T04:59:41;97001.06;;;18.01;100.00
20115;BME280;10218;42.874;25.320;2023-07-29T05:02:09;97000.91;;;18.14;100.00
20115;BME280;10218;42.874;25.320;2023-07-29T05:04:36;97006.09;;;18.34;100.00
20115;BME280;10218;42.874;25.320;2023-07-29T05:07:03;97010.72;;;18.33;100.00
20115;BME280;10218;42.874;25.320;2023-07-29T05:09:31;97011.03;;;18.44;100.00
20115;BME280;10218;42.874;25.320;2023-07-29T05:11:58;97007.44;;;18.68;100.00
20115;BME280;10218;42.874;25.320;2023-07-29T05:14:24;97014.41;;;18.75;100.00
20115;BME280;10218;42.874;25.320;2023-07-29T05:16:52;97010.84;;;18.93;100.00
20115;BME280;10218;42.874;25.320;2023-07-29T05:19:19;97021.97;;;19.33;100.00
20115;BME280;10218;42.874;25.320;2023-07-29T05:21:46;97030.00;;;19.40;100.00
20115;BME280;10218;42.874;25.320;2023-07-29T05:24:14;97028.31;;;19.69;100.00
20115;BME280;10218;42.874;25.320;2023-07-29T05:26:41;97030.72;;;20.12;100.00
20115;BME280;10218;42.874;25.320;2023-07-29T05:29:08;97033.56;;;19.93;100.00
20115;BME280;10218;42.874;25.320;2023-07-29T05:31:35;97038.88;;;20.00;100.00
20115;BME280;10218;42.874;25.320;2023-07-29T05:34:02;97027.06;;;20.29;100.00
20115;BME280;10218;42.874;25.320;2023-07-29T05:36:30;97029.44;;;20.37;100.00
20115;BME280;10218;42.874;25.320;2023-07-29T05:38:58;97029.34;;;20.96;100.00
20115;BME280;10218;42.874;25.320;2023-07-29T05:41:25;97039.09;;;21.20;100.00
20115;BME280;10218;42.874;25.320;2023-07-29T05:43:54;97039.44;;;21.23;100.00
20115;BME280;10218;42.874;25.320;2023-07-29T05:46:22;97044.53;;;21.48;100.00
20115;BME280;10218;42.874;25.320;2023-07-29T05:48:49;97042.97;;;21.52;100.00
20115;BME280;10218;42.874;25.320;2023-07-29T05:51:16;97044.41;;;21.71;100.00
20115;BME280;10218;42.874;25.320;2023-07-29T05:53:44;97043.44;;;21.94;100.00
20115;BME280;10218;42.874;25.320;2023-07-29T05:56:11;97035.56;;;22.09;100.00
20115;BME280;10218;42.874;25.320;2023-07-29T05:58:38;97038.41;;;22.36;100.00
20115;BME280;10218;42.874;25.320;2023-07-29T06:01:06;97040.00;;;22.71;100.00
20115;BME280;10218;42.874;25.320;2023-07-29T06:03:33;97041.25;;;22.80;100.00
20115;BME280;10218;42.874;25.320;2023-07-29T06:06:00;97032.72;;;22.76;100.00
20115;BME280;10218;42.874;25.320;2023-07-29T06:08:27;97027.34;;;22.81;100.00
20115;BME280;10218;42.874;25.320;2023-07-29T06:10:56;97029.56;;;23.06;100.00
20115;BME280;10218;42.874;25.320;2023-07-29T06:13:23;97016.81;;;23.12;95.20
20115;BME280;10218;42.874;25.320;2023-07-29T06:15:50;97026.16;;;23.42;92.05
20115;BME280;10218;42.874;25.320;2023-07-29T06:18:17;97020.34;;;23.34;88.12
20115;BME280;10218;42.874;25.320;2023-07-29T06:20:44;97024.12;;;23.81;85.39
20115;BME280;10218;42.874;25.320;2023-07-29T06:23:11;97017.38;;;23.89;86.01
20115;BME280;10218;42.874;25.320;2023-07-29T06:25:39;97013.69;;;24.05;87.83
20115;BME280;10218;42.874;25.320;2023-07-29T06:28:06;97011.09;;;24.20;92.63
20115;BME280;10218;42.874;25.320;2023-07-29T06:30:33;97002.66;;;24.69;89.42
20115;BME280;10218;42.874;25.320;2023-07-29T06:33:00;97003.63;;;24.43;84.63
20115;BME280;10218;42.874;25.320;2023-07-29T06:35:27;96998.19;;;25.05;77.14
20115;BME280;10218;42.874;25.320;2023-07-29T06:37:54;97002.12;;;24.72;76.85
20115;BME280;10218;42.874;25.320;2023-07-29T06:40:21;96996.78;;;24.92;80.03
20115;BME280;10218;42.874;25.320;2023-07-29T06:42:48;96999.44;;;25.54;73.58
20115;BME280;10218;42.874;25.320;2023-07-29T06:45:15;97000.84;;;26.13;67.10
20115;BME280;10218;42.874;25.320;2023-07-29T06:47:43;96993.72;;;25.81;66.06
20115;BME280;10218;42.874;25.320;2023-07-29T06:50:10;96984.97;;;26.35;64.35
20115;BME280;10218;42.874;25.320;2023-07-29T06:52:37;97001.41;;;26.25;61.32
20115;BME280;10218;42.874;25.320;2023-07-29T06:55:05;96988.19;;;26.52;60.83
20115;BME280;10218;42.874;25.320;2023-07-29T06:57:36;96989.75;;;26.89;59.14
20115;BME280;10218;42.874;25.320;2023-07-29T07:00:03;96990.69;;;27.23;57.02
20115;BME280;10218;42.874;25.320;2023-07-29T07:02:31;96994.97;;;27.44;56.99
20115;BME280;10218;42.874;25.320;2023-07-29T07:04:58;96991.13;;;27.45;56.57
20115;BME280;10218;42.874;25.320;2023-07-29T07:07:25;96992.81;;;27.41;51.79
20115;BME280;10218;42.874;25.320;2023-07-29T07:09:52;96994.53;;;27.27;50.06
20115;BME280;10218;42.874;25.320;2023-07-29T07:12:19;96998.22;;;27.56;46.58
20115;BME280;10218;42.874;25.320;2023-07-29T07:14:47;96984.22;;;27.04;46.09
20115;BME280;10218;42.874;25.320;2023-07-29T07:17:14;96991.94;;;27.46;43.44
20115;BME280;10218;42.874;25.320;2023-07-29T07:19:41;96992.66;;;27.67;41.56
20115;BME280;10218;42.874;25.320;2023-07-29T07:22:08;96981.53;;;27.53;43.12
20115;BME280;10218;42.874;25.320;2023-07-29T07:24:35;96984.50;;;28.24;40.30
20115;BME280;10218;42.874;25.320;2023-07-29T07:27:02;96981.56;;;28.73;39.03
20115;BME280;10218;42.874;25.320;2023-07-29T07:29:29;96987.41;;;28.90;37.55
20115;BME280;10218;42.874;25.320;2023-07-29T07:31:58;96976.03;;;28.21;41.02
20115;BME280;10218;42.874;25.320;2023-07-29T07:34:25;96984.84;;;28.46;40.64
20115;BME280;10218;42.874;25.320;2023-07-29T07:36:53;96987.03;;;28.21;41.13
20115;BME280;10218;42.874;25.320;2023-07-29T07:39:20;96983.03;;;28.37;41.13
20115;BME280;10218;42.874;25.320;2023-07-29T07:41:47;96976.16;;;28.34;42.25
20115;BME280;10218;42.874;25.320;2023-07-29T07:44:14;96970.34;;;29.12;41.62
20115;BME280;10218;42.874;25.320;2023-07-29T07:46:45;96982.31;;;29.64;41.34
20115;BME280;10218;42.874;25.320;2023-07-29T07:49:12;96982.28;;;29.26;40.30
20115;BME280;10218;42.874;25.320;2023-07-29T07:51:39;96973.88;;;29.18;41.15
20115;BME280;10218;42.874;25.320;2023-07-29T07:54:07;96974.91;;;29.22;41.43
20115;BME280;10218;42.874;25.320;2023-07-29T07:56:34;96974.94;;;30.29;41.12
20115;BME280;10218;42.874;25.320;2023-07-29T07:59:01;96979.03;;;29.62;40.63
20115;BME280;10218;42.874;25.320;2023-07-29T08:01:34;96975.53;;;29.38;41.72
20115;BME280;10218;42.874;25.320;2023-07-29T08:04:02;96973.09;;;29.55;42.50
20115;BME280;10218;42.874;25.320;2023-07-29T08:06:30;96985.91;;;30.48;39.01
20115;BME280;10218;42.874;25.320;2023-07-29T08:08:58;96982.69;;;30.27;40.39
20115;BME280;10218;42.874;25.320;2023-07-29T08:11:25;96983.06;;;30.53;38.73
20115;BME280;10218;42.874;25.320;2023-07-29T08:13:53;96975.41;;;30.50;38.13
20115;BME280;10218;42.874;25.320;2023-07-29T08:16:20;96978.28;;;30.99;38.42
20115;BME280;10218;42.874;25.320;2023-07-29T08:18:47;96978.94;;;30.37;39.13
20115;BME280;10218;42.874;25.320;2023-07-29T08:21:14;96944.81;;;30.33;36.71
20115;BME280;10218;42.874;25.320;2023-07-29T08:23:41;96984.63;;;29.94;36.31
20115;BME280;10218;42.874;25.320;2023-07-29T08:26:08;96981.03;;;30.58;36.92
20115;BME280;10218;42.874;25.320;2023-07-29T08:28:37;96965.53;;;30.90;38.67
20115;BME280;10218;42.874;25.320;2023-07-29T08:31:05;96971.75;;;30.95;37.34
20115;BME280;10218;42.874;25.320;2023-07-29T08:33:33;96966.13;;;31.28;36.91
20115;BME280;10218;42.874;25.320;2023-07-29T08:36:01;96968.28;;;31.04;35.76
20115;BME280;10218;42.874;25.320;2023-07-29T08:38:28;96964.94;;;31.56;34.79
20115;BME280;10218;42.874;25.320;2023-07-29T08:41:14;96958.38;;;30.75;34.89
20115;BME280;10218;42.874;25.320;2023-07-29T08:43:52;96951.13;;;30.93;37.73
20115;BME280;10218;42.874;25.320;2023-07-29T08:46:23;96947.94;;;30.58;37.98
20115;BME280;10218;42.874;25.320;2023-07-29T08:48:50;96947.34;;;30.62;35.67
20115;BME280;10218;42.874;25.320;2023-07-29T08:51:19;96947.06;;;30.17;35.62
20115;BME280;10218;42.874;25.320;2023-07-29T08:53:49;96953.50;;;31.13;34.99
20115;BME280;10218;42.874;25.320;2023-07-29T08:56:16;96948.97;;;30.76;36.37
20115;BME280;10218;42.874;25.320;2023-07-29T08:58:43;96947.53;;;31.20;36.54
20115;BME280;10218;42.874;25.320;2023-07-29T09:01:11;96953.66;;;30.48;35.10
20115;BME280;10218;42.874;25.320;2023-07-29T09:03:38;96952.47;;;30.22;37.32
20115;BME280;10218;42.874;25.320;2023-07-29T09:06:07;96944.84;;;31.42;36.36
20115;BME280;10218;42.874;25.320;2023-07-29T09:08:35;96945.41;;;32.11;35.95
20115;BME280;10218;42.874;25.320;2023-07-29T09:11:02;96934.97;;;31.85;34.36
20115;BME280;10218;42.874;25.320;2023-07-29T09:13:30;96950.00;;;32.77;35.60
20115;BME280;10218;42.874;25.320;2023-07-29T09:15:57;96952.03;;;32.32;33.20
20115;BME280;10218;42.874;25.320;2023-07-29T09:18:26;96940.91;;;32.15;36.04
20115;BME280;10218;42.874;25.320;2023-07-29T09:20:54;96943.16;;;32.44;34.88
20115;BME280;10218;42.874;25.320;2023-07-29T09:23:26;96945.44;;;32.42;34.57
20115;BME280;10218;42.874;25.320;2023-07-29T09:26:03;96942.56;;;31.58;34.22
20115;BME280;10218;42.874;25.320;2023-07-29T09:28:35;96944.56;;;31.66;35.74
20115;BME280;10218;42.874;25.320;2023-07-29T09:31:03;96952.75;;;32.46;35.50
20115;BME280;10218;42.874;25.320;2023-07-29T09:33:35;96927.50;;;31.28;35.50
20115;BME280;10218;42.874;25.320;2023-07-29T09:36:09;96939.50;;;31.81;34.70
20115;BME280;10218;42.874;25.320;2023-07-29T09:38:37;96928.91;;;30.30;37.94
20115;BME280;10218;42.874;25.320;2023-07-29T09:41:04;96935.88;;;31.95;37.58
20115;BME280;10218;42.874;25.320;2023-07-29T09:43:33;96918.16;;;33.71;34.34
20115;BME280;10218;42.874;25.320;2023-07-29T09:46:02;96931.94;;;33.53;33.79
20115;BME280;10218;42.874;25.320;2023-07-29T09:48:33;96936.28;;;32.33;35.84
20115;BME280;10218;42.874;25.320;2023-07-29T09:51:19;96932.78;;;32.49;35.41
20115;BME280;10218;42.874;25.320;2023-07-29T09:53:47;96938.09;;;32.68;34.25
20115;BME280;10218;42.874;25.320;2023-07-29T09:56:15;96931.97;;;32.88;33.35
20115;BME280;10218;42.874;25.320;2023-07-29T09:58:44;96934.78;;;32.04;34.54
20115;BME280;10218;42.874;25.320;2023-07-29T10:01:13;96932.34;;;31.58;35.97
20115;BME280;10218;42.874;25.320;2023-07-29T10:03:41;96926.31;;;32.23;37.23
20115;BME280;10218;42.874;25.320;2023-07-29T10:06:09;96927.59;;;32.56;35.22
20115;BME280;10218;42.874;25.320;2023-07-29T10:08:36;96928.38;;;32.48;36.07
20115;BME280;10218;42.874;25.320;2023-07-29T10:11:07;96926.41;;;33.53;35.91
20115;BME280;10218;42.874;25.320;2023-07-29T10:13:36;96922.00;;;33.52;35.63
20115;BME280;10218;42.874;25.320;2023-07-29T10:16:03;96915.00;;;34.70;33.73
20115;BME280;10218;42.874;25.320;2023-07-29T10:18:33;96920.00;;;33.10;36.28
20115;BME280;10218;42.874;25.320;2023-07-29T10:21:01;96909.16;;;33.74;34.82
20115;BME280;10218;42.874;25.320;2023-07-29T10:23:32;96912.09;;;34.03;34.59
20115;BME280;10218;42.874;25.320;2023-07-29T10:26:05;96916.88;;;34.87;33.30
20115;BME280;10218;42.874;25.320;2023-07-29T10:28:33;96912.69;;;33.23;34.32
20115;BME280;10218;42.874;25.320;2023-07-29T10:31:04;96912.44;;;32.76;35.18
20115;BME280;10218;42.874;25.320;2023-07-29T10:33:33;96914.94;;;32.55;35.64
20115;BME280;10218;42.874;25.320;2023-07-29T10:36:01;96907.34;;;33.35;34.60
20115;BME280;10218;42.874;25.320;2023-07-29T10:38:29;96909.50;;;33.46;34.54
20115;BME280;10218;42.874;25.320;2023-07-29T10:40:56;96897.97;;;34.81;32.85
20115;BME280;10218;42.874;25.320;2023-07-29T10:45:55;96899.47;;;34.78;31.54
20115;BME280;10218;42.874;25.320;2023-07-29T10:48:56;96896.84;;;35.32;33.12
20115;BME280;10218;42.874;25.320;2023-07-29T10:51:34;96892.81;;;34.62;32.14
20115;BME280;10218;42.874;25.320;2023-07-29T10:54:03;96897.06;;;34.04;31.01
20115;BME280;10218;42.874;25.320;2023-07-29T10:56:34;96890.59;;;34.47;31.28
20115;BME280;10218;42.874;25.320;2023-07-29T10:59:23;96889.31;;;33.72;31.82
20115;BME280;10218;42.874;25.320;2023-07-29T11:01:58;96886.66;;;33.58;32.15
20115;BME280;10218;42.874;25.320;2023-07-29T11:04:27;96883.72;;;34.91;33.09
20115;BME280;10218;42.874;25.320;2023-07-29T11:20:17;96876.91;;;36.25;29.09
20115;BME280;10218;42.874;25.320;2023-07-29T11:22:44;96870.00;;;34.01;30.40
20115;BME280;10218;42.874;25.320;2023-07-29T11:25:14;96869.88;;;33.29;30.11
20115;BME280;10218;42.874;25.320;2023-07-29T11:27:42;96867.81;;;34.32;29.10
20115;BME280;10218;42.874;25.320;2023-07-29T11:30:11;96862.69;;;35.52;29.25
20115;BME280;10218;42.874;25.320;2023-07-29T11:32:39;96870.38;;;33.74;29.56
20115;BME280;10218;42.874;25.320;2023-07-29T11:35:07;96867.03;;;34.23;29.13
20115;BME280;10218;42.874;25.320;2023-07-29T11:37:37;96868.09;;;33.76;29.15
20115;BME280;10218;42.874;25.320;2023-07-29T11:40:05;96868.75;;;33.81;29.96
20115;BME280;10218;42.874;25.320;2023-07-29T11:42:34;96866.06;;;34.11;28.91
20115;BME280;10218;42.874;25.320;2023-07-29T11:45:02;96866.53;;;35.68;29.95
20115;BME280;10218;42.874;25.320;2023-07-29T11:47:31;96864.09;;;34.96;27.61
20115;BME280;10218;42.874;25.320;2023-07-29T11:49:59;96857.91;;;34.90;27.73
20115;BME280;10218;42.874;25.320;2023-07-29T11:52:31;96856.88;;;34.74;27.68
20115;BME280;10218;42.874;25.320;2023-07-29T11:55:00;96851.53;;;34.69;28.23
20115;BME280;10218;42.874;25.320;2023-07-29T11:57:34;96850.81;;;33.27;30.31
20115;BME280;10218;42.874;25.320;2023-07-29T12:00:03;96852.75;;;33.87;29.01
20115;BME280;10218;42.874;25.320;2023-07-29T12:02:36;96840.50;;;34.81;29.35
20115;BME280;10218;42.874;25.320;2023-07-29T12:05:04;96845.81;;;35.15;28.70
20115;BME280;10218;42.874;25.320;2023-07-29T12:07:32;96844.97;;;36.79;28.04
20115;BME280;10218;42.874;25.320;2023-07-29T12:10:03;96843.19;;;37.23;26.66
20115;BME280;10218;42.874;25.320;2023-07-29T12:12:30;96851.09;;;36.03;29.07
20115;BME280;10218;42.874;25.320;2023-07-29T12:14:58;96850.16;;;35.46;27.68
20115;BME280;10218;42.874;25.320;2023-07-29T12:17:25;96839.91;;;34.38;29.00
20115;BME280;10218;42.874;25.320;2023-07-29T12:19:54;96847.03;;;36.58;28.34
20115;BME280;10218;42.874;25.320;2023-07-29T12:22:21;96840.06;;;36.16;27.02
20115;BME280;10218;42.874;25.320;2023-07-29T12:24:51;96836.63;;;34.35;28.86
20115;BME280;10218;42.874;25.320;2023-07-29T12:27:21;96837.72;;;34.81;28.09
20115;BME280;10218;42.874;25.320;2023-07-29T12:29:51;96837.31;;;35.21;28.55
20115;BME280;10218;42.874;25.320;2023-07-29T12:32:19;96830.59;;;35.42;28.44
20115;BME280;10218;42.874;25.320;2023-07-29T12:34:46;96831.53;;;35.46;28.37
20115;BME280;10218;42.874;25.320;2023-07-29T12:37:13;96835.91;;;35.35;28.40
20115;BME280;10218;42.874;25.320;2023-07-29T12:39:41;96830.00;;;34.57;29.45
20115;BME280;10218;42.874;25.320;2023-07-29T12:42:11;96831.81;;;35.86;27.54
20115;BME280;10218;42.874;25.320;2023-07-29T12:44:38;96828.97;;;35.21;28.27
20115;BME280;10218;42.874;25.320;2023-07-29T12:47:06;96832.13;;;35.19;29.95
20115;BME280;10218;42.874;25.320;2023-07-29T12:49:35;96832.34;;;35.47;28.27
20115;BME280;10218;42.874;25.320;2023-07-29T12:52:02;96829.56;;;36.70;29.24
20115;BME280;10218;42.874;25.320;2023-07-29T12:54:30;96819.03;;;37.28;27.08
20115;BME280;10218;42.874;25.320;2023-07-29T12:56:57;96819.47;;;37.69;27.03
20115;BME280;10218;42.874;25.320;2023-07-29T12:59:24;96825.97;;;36.81;27.16
20115;BME280;10218;42.874;25.320;2023-07-29T13:01:51;96822.25;;;37.42;27.70
20115;BME280;10218;42.874;25.320;2023-07-29T13:04:18;96819.09;;;36.91;27.00
20115;BME280;10218;42.874;25.320;2023-07-29T13:06:45;96824.56;;;36.63;26.89
20115;BME280;10218;42.874;25.320;2023-07-29T13:09:12;96821.69;;;33.47;30.02
20115;BME280;10218;42.874;25.320;2023-07-29T13:11:39;96817.88;;;35.00;30.31
20115;BME280;10218;42.874;25.320;2023-07-29T13:14:06;96817.53;;;35.22;29.70